Time;durP1;ratioP1;P1;durP2;ratioP2;P2;SDS_P1;SDS_P2;PMS_P1;PMS_P2;Temp;Humidity;BMP_temperature;BMP_pressure;BME280_temperature;BME280_humidity;BME280_pressure;Samples;Min_cycle;Max_cycle;Signal;HPM_P1;HPM_P2
2023/05/11 00:00:40;;;;;;;10.82;2.15;;;;;;;;;;4980540;28;20038;-43
2023/05/11 00:03:07;;;;;;;11.32;2.55;;;;;;;;;;4980053;28;20045;-42
2023/05/11 00:05:34;;;;;;;13.48;2.05;;;;;;;;;;4991126;28;20026;-43
2023/05/11 00:08:02;;;;;;;13.40;1.90;;;;;;;;;;4983421;28;20030;-44
2023/05/11 00:10:29;;;;;;;16.20;2.22;;;;;;;;;;4982755;28;20027;-43
2023/05/11 00:12:56;;;;;;;14.38;2.35;;;;;;;;;;4981685;28;20507;-43
2023/05/11 00:15:23;;;;;;;12.15;2.10;;;;;;;;;;4983187;28;20480;-45
2023/05/11 00:17:50;;;;;;;17.63;2.35;;;;;;;;;;4981289;28;20026;-47
2023/05/11 00:20:20;;;;;;;16.08;2.75;;;;;;;;;;4979262;28;20030;-42
2023/05/11 00:22:47;;;;;;;14.93;2.65;;;;;;;;;;4978859;28;20564;-44
2023/05/11 00:25:14;;;;;;;12.35;2.00;;;;;;;;;;4978895;28;20388;-44
2023/05/11 00:27:44;;;;;;;16.25;2.65;;;;;;;;;;4990906;28;20121;-46
2023/05/11 00:30:13;;;;;;;10.85;2.58;;;;;;;;;;4992506;28;20042;-45
2023/05/11 00:32:40;;;;;;;11.35;2.50;;;;;;;;;;4991971;28;20038;-43
2023/05/11 00:35:07;;;;;;;18.73;3.17;;;;;;;;;;4992103;28;20038;-43
2023/05/11 00:37:34;;;;;;;15.48;3.00;;;;;;;;;;4991500;28;20049;-43
2023/05/11 00:40:02;;;;;;;12.65;2.85;;;;;;;;;;4992136;28;20038;-42
2023/05/11 00:42:29;;;;;;;23.02;3.97;;;;;;;;;;4991834;28;20101;-43
2023/05/11 00:44:56;;;;;;;24.25;5.22;;;;;;;;;;4991588;28;20030;-43
2023/05/11 00:47:23;;;;;;;27.50;6.85;;;;;;;;;;4991603;28;20085;-44
2023/05/11 00:49:52;;;;;;;30.40;7.10;;;;;;;;;;4991903;28;20077;-44
2023/05/11 00:52:22;;;;;;;27.88;6.43;;;;;;;;;;4991646;28;20117;-43
2023/05/11 00:54:49;;;;;;;26.85;6.43;;;;;;;;;;4991473;28;20044;-43
2023/05/11 00:57:17;;;;;;;26.13;6.68;;;;;;;;;;4991216;28;20029;-43
2023/05/11 00:59:44;;;;;;;24.70;6.57;;;;;;;;;;4991126;28;20030;-42
2023/05/11 01:02:11;;;;;;;23.50;6.28;;;;;;;;;;4991689;28;20073;-43
2023/05/11 01:04:38;;;;;;;22.45;5.55;;;;;;;;;;4991286;28;20030;-43
2023/05/11 01:07:37;;;;;;;25.55;6.30;;;;;;;;;;4990923;28;20092;-43
2023/05/11 01:10:10;;;;;;;21.90;6.00;;;;;;;;;;4933571;28;20385;-45
2023/05/11 01:12:46;;;;;;;23.27;5.57;;;;;;;;;;4991503;28;20026;-43
2023/05/11 01:15:17;;;;;;;20.75;4.25;;;;;;;;;;4991191;28;20046;-42
2023/05/11 01:17:53;;;;;;;19.15;5.30;;;;;;;;;;4973940;28;20116;-43
2023/05/11 01:20:26;;;;;;;25.83;5.13;;;;;;;;;;4981828;28;20038;-42
2023/05/11 01:22:53;;;;;;;18.75;5.07;;;;;;;;;;4982343;28;20042;-42
2023/05/11 01:25:38;;;;;;;15.27;4.60;;;;;;;;;;4980378;28;20015;-43
2023/05/11 01:28:20;;;;;;;17.02;5.30;;;;;;;;;;4980993;28;20014;-42
2023/05/11 01:30:48;;;;;;;22.52;5.43;;;;;;;;;;4972162;28;20733;-42
2023/05/11 01:33:16;;;;;;;22.17;5.43;;;;;;;;;;4971997;28;20114;-42
2023/05/11 01:35:45;;;;;;;19.23;4.78;;;;;;;;;;4972154;28;20038;-42
2023/05/11 01:38:14;;;;;;;17.75;4.53;;;;;;;;;;4973275;28;20038;-42
2023/05/11 01:40:41;;;;;;;18.27;5.05;;;;;;;;;;4990214;28;20080;-43
2023/05/11 01:43:12;;;;;;;13.35;3.88;;;;;;;;;;4990629;28;20504;-43
2023/05/11 01:45:41;;;;;;;18.48;4.35;;;;;;;;;;4972505;28;20031;-46
2023/05/11 01:48:12;;;;;;;18.90;4.47;;;;;;;;;;4971999;28;20054;-44
2023/05/11 01:50:39;;;;;;;15.15;4.30;;;;;;;;;;4972706;28;20043;-46
2023/05/11 01:53:07;;;;;;;15.48;4.47;;;;;;;;;;4971316;28;20035;-44
2023/05/11 01:55:35;;;;;;;14.73;3.72;;;;;;;;;;4972487;28;20047;-44
2023/05/11 01:58:03;;;;;;;16.08;4.13;;;;;;;;;;4972730;28;20027;-43
2023/05/11 02:00:31;;;;;;;16.35;3.88;;;;;;;;;;4972709;28;20081;-43
2023/05/11 02:02:59;;;;;;;12.15;3.70;;;;;;;;;;4972616;28;20124;-44
2023/05/11 02:05:26;;;;;;;14.57;3.92;;;;;;;;;;4972538;28;20038;-44
2023/05/11 02:07:54;;;;;;;13.65;3.88;;;;;;;;;;4972633;28;20046;-43
2023/05/11 02:10:25;;;;;;;12.52;4.15;;;;;;;;;;4972620;28;20489;-43
2023/05/11 02:12:53;;;;;;;11.73;3.72;;;;;;;;;;4972371;28;20396;-43
2023/05/11 02:15:24;;;;;;;11.93;4.05;;;;;;;;;;4972420;28;20117;-42
2023/05/11 02:17:51;;;;;;;14.43;3.72;;;;;;;;;;4972512;28;20034;-43
2023/05/11 02:20:19;;;;;;;11.32;3.53;;;;;;;;;;4972526;28;20037;-47
2023/05/11 02:22:47;;;;;;;11.82;3.65;;;;;;;;;;4972540;28;20042;-43
2023/05/11 02:25:15;;;;;;;13.90;4.20;;;;;;;;;;4972318;28;20511;-43
2023/05/11 02:27:42;;;;;;;11.88;3.67;;;;;;;;;;4972150;28;20026;-46
2023/05/11 02:30:10;;;;;;;9.25;2.97;;;;;;;;;;4972311;28;20023;-42
2023/05/11 02:32:38;;;;;;;10.63;3.55;;;;;;;;;;4955032;28;20421;-43
2023/05/11 02:35:11;;;;;;;11.70;3.60;;;;;;;;;;4972196;28;20505;-43
2023/05/11 02:37:42;;;;;;;12.93;3.35;;;;;;;;;;4972193;28;20033;-44
2023/05/11 02:40:13;;;;;;;8.73;3.22;;;;;;;;;;4972370;28;20038;-45
2023/05/11 02:42:43;;;;;;;10.90;3.10;;;;;;;;;;4971169;28;20023;-44
2023/05/11 02:45:12;;;;;;;9.90;3.33;;;;;;;;;;4972107;28;20035;-42
2023/05/11 02:47:40;;;;;;;12.13;3.10;;;;;;;;;;4971930;28;20589;-44
2023/05/11 02:50:08;;;;;;;11.65;3.35;;;;;;;;;;4972248;28;20062;-42
2023/05/11 02:52:36;;;;;;;10.18;3.35;;;;;;;;;;4972177;28;20027;-43
2023/05/11 02:55:03;;;;;;;10.05;3.15;;;;;;;;;;4972106;28;20042;-44
2023/05/11 02:57:31;;;;;;;10.38;3.17;;;;;;;;;;4972185;28;20517;-42
2023/05/11 02:59:58;;;;;;;9.27;2.75;;;;;;;;;;4974195;28;20527;-42
2023/05/11 03:02:25;;;;;;;10.80;3.00;;;;;;;;;;4958213;28;20031;-42
2023/05/11 03:04:52;;;;;;;12.15;3.53;;;;;;;;;;4975441;28;20034;-42
2023/05/11 03:07:19;;;;;;;9.95;2.97;;;;;;;;;;4975539;28;20041;-43
2023/05/11 03:09:46;;;;;;;9.65;3.00;;;;;;;;;;4975488;28;20034;-43
2023/05/11 03:12:14;;;;;;;8.88;2.92;;;;;;;;;;4975376;28;20571;-43
2023/05/11 03:14:42;;;;;;;10.23;2.80;;;;;;;;;;4975290;28;20038;-43
2023/05/11 03:17:09;;;;;;;10.60;3.08;;;;;;;;;;4975115;28;20031;-43
2023/05/11 03:19:40;;;;;;;9.80;2.97;;;;;;;;;;4975359;28;20030;-43
2023/05/11 03:22:08;;;;;;;11.27;3.20;;;;;;;;;;4975173;28;20366;-43
2023/05/11 03:24:35;;;;;;;8.23;2.80;;;;;;;;;;4975158;28;20186;-43
2023/05/11 03:27:03;;;;;;;8.65;2.78;;;;;;;;;;4975159;28;20034;-43
2023/05/11 03:29:31;;;;;;;9.32;2.42;;;;;;;;;;4957352;28;20034;-44
2023/05/11 03:31:58;;;;;;;10.18;2.70;;;;;;;;;;4975100;28;20030;-45
2023/05/11 03:34:25;;;;;;;7.78;2.67;;;;;;;;;;4974801;28;20054;-43
2023/05/11 03:36:52;;;;;;;7.80;2.40;;;;;;;;;;4975010;28;20027;-44
2023/05/11 03:39:21;;;;;;;6.00;2.33;;;;;;;;;;4974935;28;20034;-43
2023/05/11 03:41:49;;;;;;;8.32;2.50;;;;;;;;;;4974877;28;20113;-45
2023/05/11 03:44:21;;;;;;;7.65;2.28;;;;;;;;;;4974700;28;20034;-44
2023/05/11 03:46:52;;;;;;;6.50;2.65;;;;;;;;;;4974638;28;20050;-47
2023/05/11 03:49:19;;;;;;;8.25;2.60;;;;;;;;;;4974736;28;20121;-47
2023/05/11 03:51:47;;;;;;;8.90;2.42;;;;;;;;;;4974566;28;20425;-44
2023/05/11 03:54:14;;;;;;;5.28;2.08;;;;;;;;;;4974490;28;20046;-45
2023/05/11 03:56:41;;;;;;;7.53;2.33;;;;;;;;;;4957125;28;20383;-44
2023/05/11 03:59:08;;;;;;;11.15;3.03;;;;;;;;;;4974545;28;20484;-43
2023/05/11 04:01:36;;;;;;;8.68;2.50;;;;;;;;;;4974546;28;20392;-47
2023/05/11 04:04:03;;;;;;;9.75;2.63;;;;;;;;;;4974269;28;20027;-43
2023/05/11 04:06:30;;;;;;;9.65;2.53;;;;;;;;;;4974425;28;20027;-42
2023/05/11 04:08:57;;;;;;;7.53;2.40;;;;;;;;;;4974292;28;20106;-43
2023/05/11 04:11:26;;;;;;;7.43;2.33;;;;;;;;;;4973966;28;20053;-43
2023/05/11 04:13:53;;;;;;;11.13;2.40;;;;;;;;;;4974030;28;20046;-43
2023/05/11 04:16:20;;;;;;;5.25;2.38;;;;;;;;;;4974178;28;20046;-43
2023/05/11 04:18:47;;;;;;;6.53;2.20;;;;;;;;;;4974013;28;20035;-43
2023/05/11 04:21:15;;;;;;;7.70;2.38;;;;;;;;;;4974184;28;20049;-44
2023/05/11 04:23:41;;;;;;;7.45;2.53;;;;;;;;;;4974080;28;20043;-45
2023/05/11 04:26:08;;;;;;;6.82;2.33;;;;;;;;;;4973929;28;20027;-43
2023/05/11 04:28:35;;;;;;;8.57;2.45;;;;;;;;;;4973986;28;20037;-43
2023/05/11 04:31:02;;;;;;;7.20;2.35;;;;;;;;;;4974048;28;20039;-42
2023/05/11 04:33:30;;;;;;;7.32;2.67;;;;;;;;;;4973747;28;20061;-44
2023/05/11 04:35:57;;;;;;;5.40;1.70;;;;;;;;;;4973889;28;20069;-42
2023/05/11 04:38:24;;;;;;;4.47;2.17;;;;;;;;;;4974188;28;20111;-44
2023/05/11 04:40:51;;;;;;;6.38;1.92;;;;;;;;;;4973617;28;20030;-42
2023/05/11 04:43:18;;;;;;;5.75;2.03;;;;;;;;;;4973713;28;20039;-42
2023/05/11 04:45:51;;;;;;;5.22;2.00;;;;;;;;;;4973636;28;20122;-43
2023/05/11 04:48:18;;;;;;;5.47;2.00;;;;;;;;;;4973517;28;20413;-44
2023/05/11 04:50:45;;;;;;;5.28;1.95;;;;;;;;;;4973657;28;20630;-42
2023/05/11 04:53:12;;;;;;;4.75;2.05;;;;;;;;;;4973359;28;20062;-43
2023/05/11 04:55:39;;;;;;;5.28;1.70;;;;;;;;;;4973448;28;20074;-45
2023/05/11 04:58:06;;;;;;;3.72;1.80;;;;;;;;;;4973549;28;20035;-43
2023/05/11 05:00:35;;;;;;;5.60;2.00;;;;;;;;;;4973452;28;20547;-43
2023/05/11 05:03:02;;;;;;;6.20;1.90;;;;;;;;;;4973557;28;20473;-42
2023/05/11 05:05:29;;;;;;;4.82;1.67;;;;;;;;;;4973109;28;20386;-47
2023/05/11 05:07:56;;;;;;;5.03;1.58;;;;;;;;;;4973398;28;20444;-44
2023/05/11 05:10:23;;;;;;;6.75;2.42;;;;;;;;;;4973281;28;20035;-44
2023/05/11 05:12:50;;;;;;;6.18;2.00;;;;;;;;;;4973270;28;20030;-44
2023/05/11 05:15:17;;;;;;;5.90;1.95;;;;;;;;;;4972924;28;20038;-42
2023/05/11 05:17:44;;;;;;;4.97;1.75;;;;;;;;;;4973163;28;20031;-42
2023/05/11 05:20:11;;;;;;;6.97;2.10;;;;;;;;;;4973154;28;20505;-45
2023/05/11 05:22:38;;;;;;;4.40;1.60;;;;;;;;;;4972416;28;20026;-44
2023/05/11 05:25:05;;;;;;;4.60;1.60;;;;;;;;;;4972809;28;20023;-41
2023/05/11 05:27:32;;;;;;;3.33;1.42;;;;;;;;;;4973010;28;20034;-42
2023/05/11 05:29:59;;;;;;;4.55;1.83;;;;;;;;;;4972967;28;20039;-46
2023/05/11 05:32:26;;;;;;;5.93;2.10;;;;;;;;;;4973021;28;20106;-42
2023/05/11 05:34:53;;;;;;;6.30;1.80;;;;;;;;;;4972811;28;20039;-45
2023/05/11 05:37:20;;;;;;;9.48;1.67;;;;;;;;;;4972729;28;20051;-46
2023/05/11 05:39:47;;;;;;;4.22;1.63;;;;;;;;;;4972889;28;20034;-46
2023/05/11 05:42:14;;;;;;;4.70;1.63;;;;;;;;;;4972835;28;20109;-46
2023/05/11 05:44:41;;;;;;;4.30;1.80;;;;;;;;;;4972831;28;20027;-44
2023/05/11 05:47:08;;;;;;;6.13;2.17;;;;;;;;;;4972744;28;20050;-44
2023/05/11 05:49:35;;;;;;;5.78;1.85;;;;;;;;;;4972610;28;20027;-44
2023/05/11 05:52:02;;;;;;;5.65;1.55;;;;;;;;;;4972782;28;20097;-46
2023/05/11 05:54:30;;;;;;;5.93;1.85;;;;;;;;;;4972547;28;20038;-45
2023/05/11 05:56:57;;;;;;;3.45;1.63;;;;;;;;;;4972537;28;20031;-45
2023/05/11 05:59:24;;;;;;;4.82;1.90;;;;;;;;;;4972767;28;20093;-49
2023/05/11 06:01:51;;;;;;;4.35;1.40;;;;;;;;;;4980960;28;20058;-45
2023/05/11 06:04:18;;;;;;;3.42;1.67;;;;;;;;;;4991912;28;20030;-47
2023/05/11 06:06:45;;;;;;;5.90;1.70;;;;;;;;;;4992042;28;20096;-42
2023/05/11 06:09:12;;;;;;;4.53;1.83;;;;;;;;;;4974311;28;20121;-42
2023/05/11 06:11:39;;;;;;;6.10;1.67;;;;;;;;;;4992012;28;20026;-42
2023/05/11 06:14:06;;;;;;;6.05;1.65;;;;;;;;;;4991731;28;20041;-42
2023/05/11 06:16:33;;;;;;;6.53;1.63;;;;;;;;;;4991884;28;20038;-42
2023/05/11 06:19:00;;;;;;;4.32;1.80;;;;;;;;;;4991939;28;20030;-43
2023/05/11 06:21:27;;;;;;;2.67;1.45;;;;;;;;;;4974470;28;20416;-42
2023/05/11 06:23:54;;;;;;;7.05;1.85;;;;;;;;;;4991659;28;20042;-43
2023/05/11 06:26:23;;;;;;;4.65;1.50;;;;;;;;;;4991870;28;20018;-43
2023/05/11 06:28:51;;;;;;;2.60;1.40;;;;;;;;;;4991840;28;20043;-46
2023/05/11 06:31:18;;;;;;;5.40;1.55;;;;;;;;;;4991516;28;20034;-43
2023/05/11 06:33:45;;;;;;;4.28;1.67;;;;;;;;;;4993520;28;20046;-43
2023/05/11 06:36:12;;;;;;;4.38;1.58;;;;;;;;;;4995614;28;20153;-42
2023/05/11 06:38:39;;;;;;;3.42;1.52;;;;;;;;;;4995497;28;20384;-42
2023/05/11 06:41:08;;;;;;;4.30;1.40;;;;;;;;;;4995333;28;20030;-43
2023/05/11 06:43:35;;;;;;;4.05;1.45;;;;;;;;;;4995272;28;20030;-42
2023/05/11 06:46:02;;;;;;;4.38;1.55;;;;;;;;;;4995335;28;20381;-44
2023/05/11 06:48:29;;;;;;;3.55;1.40;;;;;;;;;;4995166;28;20459;-43
2023/05/11 06:50:56;;;;;;;5.22;1.75;;;;;;;;;;4995232;28;20396;-44
2023/05/11 06:53:23;;;;;;;3.00;1.40;;;;;;;;;;4994855;28;20197;-43
2023/05/11 06:55:50;;;;;;;5.95;1.45;;;;;;;;;;4995237;28;20026;-44
2023/05/11 06:58:19;;;;;;;5.00;1.60;;;;;;;;;;4995046;28;20085;-42
2023/05/11 07:00:46;;;;;;;4.47;1.50;;;;;;;;;;4995058;28;20060;-42
2023/05/11 07:03:13;;;;;;;6.07;1.60;;;;;;;;;;4994971;28;20080;-43
2023/05/11 07:05:40;;;;;;;3.80;1.30;;;;;;;;;;4994845;28;20026;-42
2023/05/11 07:08:07;;;;;;;4.75;1.40;;;;;;;;;;4995070;28;20026;-43
2023/05/11 07:10:34;;;;;;;4.82;1.58;;;;;;;;;;4994742;28;20022;-44
2023/05/11 07:13:01;;;;;;;5.05;1.70;;;;;;;;;;4994780;28;20059;-42
2023/05/11 07:15:28;;;;;;;3.60;1.33;;;;;;;;;;4994718;28;20044;-42
2023/05/11 07:17:55;;;;;;;4.22;1.50;;;;;;;;;;4994773;28;20036;-43
2023/05/11 07:20:22;;;;;;;4.18;1.20;;;;;;;;;;4994813;28;20034;-44
2023/05/11 07:22:49;;;;;;;3.63;1.60;;;;;;;;;;4994536;28;20030;-44
2023/05/11 07:25:16;;;;;;;3.60;1.42;;;;;;;;;;4994641;28;20026;-43
2023/05/11 07:27:43;;;;;;;3.50;1.60;;;;;;;;;;4994688;28;20026;-43
2023/05/11 07:30:10;;;;;;;4.85;1.50;;;;;;;;;;4994400;28;20114;-44
2023/05/11 07:32:37;;;;;;;4.63;1.50;;;;;;;;;;4994473;28;20030;-42
2023/05/11 07:35:04;;;;;;;4.35;1.40;;;;;;;;;;4994431;28;20035;-47
2023/05/11 07:37:31;;;;;;;7.15;1.52;;;;;;;;;;4994480;28;20034;-43
2023/05/11 07:39:58;;;;;;;5.07;1.55;;;;;;;;;;4994263;28;20030;-43
2023/05/11 07:42:25;;;;;;;5.95;1.42;;;;;;;;;;4994281;28;20030;-42
2023/05/11 07:44:53;;;;;;;4.80;1.20;;;;;;;;;;4993318;28;20042;-43
2023/05/11 07:47:20;;;;;;;4.50;1.38;;;;;;;;;;4994222;28;20405;-42
2023/05/11 07:49:47;;;;;;;4.93;1.70;;;;;;;;;;4994275;28;20053;-45
2023/05/11 07:52:14;;;;;;;3.20;1.40;;;;;;;;;;4994066;28;20129;-47
2023/05/11 07:54:41;;;;;;;4.32;1.48;;;;;;;;;;4994107;28;20424;-45
2023/05/11 07:57:10;;;;;;;2.83;1.45;;;;;;;;;;4994135;28;20038;-43
2023/05/11 07:59:37;;;;;;;5.05;1.40;;;;;;;;;;4993978;28;20083;-45
2023/05/11 08:02:05;;;;;;;3.20;1.40;;;;;;;;;;4993835;28;20392;-47
2023/05/11 08:04:32;;;;;;;4.28;1.70;;;;;;;;;;4993845;28;20787;-44
2023/05/11 08:06:59;;;;;;;3.10;1.40;;;;;;;;;;4993857;28;20022;-43
2023/05/11 08:09:26;;;;;;;3.45;1.10;;;;;;;;;;4993717;28;20049;-45
2023/05/11 08:11:55;;;;;;;2.88;1.15;;;;;;;;;;4993857;28;20497;-41
2023/05/11 08:14:25;;;;;;;5.97;1.42;;;;;;;;;;4993517;28;20046;-43
2023/05/11 08:16:52;;;;;;;3.50;1.20;;;;;;;;;;4993659;28;20038;-43
2023/05/11 08:19:19;;;;;;;4.65;1.20;;;;;;;;;;4993482;28;20022;-43
2023/05/11 08:21:46;;;;;;;2.78;1.02;;;;;;;;;;4993660;28;20595;-42
2023/05/11 08:24:13;;;;;;;3.47;1.02;;;;;;;;;;4975991;28;20039;-44
2023/05/11 08:26:40;;;;;;;3.72;1.38;;;;;;;;;;4993524;28;20026;-41
2023/05/11 08:29:07;;;;;;;3.22;1.15;;;;;;;;;;4993376;28;20111;-43
2023/05/11 08:31:34;;;;;;;4.15;1.13;;;;;;;;;;4993366;28;20061;-42
2023/05/11 08:34:01;;;;;;;3.58;1.33;;;;;;;;;;4993303;28;20503;-43
2023/05/11 08:36:28;;;;;;;3.22;1.30;;;;;;;;;;4993354;28;20054;-43
2023/05/11 08:38:55;;;;;;;5.95;1.40;;;;;;;;;;4993329;28;20531;-43
2023/05/11 08:41:23;;;;;;;13.90;1.40;;;;;;;;;;4993091;28;20038;-42
2023/05/11 08:43:50;;;;;;;4.72;1.10;;;;;;;;;;4993137;28;20844;-42
2023/05/11 08:46:21;;;;;;;3.38;1.30;;;;;;;;;;4993214;28;20122;-42
2023/05/11 08:48:49;;;;;;;4.20;1.30;;;;;;;;;;4992926;28;20058;-44
2023/05/11 08:51:16;;;;;;;4.68;1.27;;;;;;;;;;4992999;28;20488;-42
2023/05/11 08:53:43;;;;;;;4.70;1.23;;;;;;;;;;4992633;28;20034;-41
2023/05/11 08:56:10;;;;;;;4.90;1.48;;;;;;;;;;4992964;28;20132;-43
2023/05/11 08:58:38;;;;;;;2.33;1.00;;;;;;;;;;4992919;28;20110;-42
2023/05/11 09:01:11;;;;;;;3.85;1.35;;;;;;;;;;4992980;28;20045;-42
2023/05/11 09:03:40;;;;;;;4.13;1.30;;;;;;;;;;4991895;28;20033;-43
2023/05/11 09:06:07;;;;;;;2.53;1.10;;;;;;;;;;4992429;28;20034;-42
2023/05/11 09:08:35;;;;;;;5.22;1.55;;;;;;;;;;4992446;28;20034;-42
2023/05/11 09:11:03;;;;;;;2.95;1.30;;;;;;;;;;4986054;28;20065;-42
2023/05/11 09:13:30;;;;;;;3.78;1.20;;;;;;;;;;4981499;28;20057;-42
2023/05/11 09:15:58;;;;;;;5.05;1.05;;;;;;;;;;4982542;28;20141;-44
2023/05/11 09:18:25;;;;;;;5.35;1.17;;;;;;;;;;4977890;28;20054;-42
2023/05/11 09:20:52;;;;;;;5.50;1.40;;;;;;;;;;4978279;28;20018;-43
2023/05/11 09:23:24;;;;;;;5.43;1.35;;;;;;;;;;4981989;28;20044;-46
2023/05/11 09:25:51;;;;;;;7.72;1.75;;;;;;;;;;4965098;28;20026;-42
2023/05/11 09:28:26;;;;;;;5.70;1.30;;;;;;;;;;4982361;28;20042;-44
2023/05/11 09:30:54;;;;;;;8.95;1.45;;;;;;;;;;4985909;28;20029;-43
2023/05/11 09:33:25;;;;;;;6.50;1.30;;;;;;;;;;4981836;28;20030;-42
2023/05/11 09:35:53;;;;;;;11.88;1.52;;;;;;;;;;4982212;28;20049;-41
2023/05/11 09:38:21;;;;;;;6.35;1.70;;;;;;;;;;4984397;28;20027;-46
2023/05/11 09:40:52;;;;;;;9.88;1.45;;;;;;;;;;4990548;28;20038;-42
2023/05/11 09:43:21;;;;;;;12.15;1.60;;;;;;;;;;4991209;28;20038;-42
2023/05/11 09:45:52;;;;;;;5.80;1.65;;;;;;;;;;4990737;28;20031;-43
2023/05/11 09:48:19;;;;;;;6.70;1.50;;;;;;;;;;4991497;28;20061;-43
2023/05/11 09:50:49;;;;;;;7.50;1.60;;;;;;;;;;4992199;28;20268;-45
2023/05/11 09:53:17;;;;;;;7.57;1.02;;;;;;;;;;4992053;28;20034;-44
2023/05/11 09:55:54;;;;;;;7.30;1.50;;;;;;;;;;4992060;28;20042;-43
2023/05/11 09:58:22;;;;;;;8.05;1.48;;;;;;;;;;4992308;28;20034;-43
2023/05/11 10:00:50;;;;;;;6.25;1.50;;;;;;;;;;4992209;28;20026;-44
2023/05/11 10:03:17;;;;;;;9.50;1.30;;;;;;;;;;4992163;28;20101;-44
2023/05/11 10:05:56;;;;;;;3.97;1.40;;;;;;;;;;4992146;28;20973;-43
2023/05/11 10:08:33;;;;;;;6.53;1.48;;;;;;;;;;4993432;28;20421;-43
2023/05/11 10:11:01;;;;;;;6.95;1.60;;;;;;;;;;4993234;28;20053;-42
2023/05/11 10:13:29;;;;;;;12.32;1.75;;;;;;;;;;4986002;28;20034;-43
2023/05/11 10:15:58;;;;;;;7.38;1.50;;;;;;;;;;4988956;28;20050;-42
2023/05/11 10:18:25;;;;;;;4.65;1.60;;;;;;;;;;4984667;28;20029;-41
2023/05/11 10:20:53;;;;;;;6.53;1.65;;;;;;;;;;4983828;28;20113;-41
2023/05/11 10:23:21;;;;;;;5.88;1.13;;;;;;;;;;4967777;28;20034;-42
2023/05/11 10:25:48;;;;;;;6.07;1.52;;;;;;;;;;4983282;28;20137;-42
2023/05/11 10:28:15;;;;;;;7.57;1.40;;;;;;;;;;4983224;28;20023;-44
2023/05/11 10:30:43;;;;;;;7.70;1.52;;;;;;;;;;4984623;28;20026;-42
2023/05/11 10:33:10;;;;;;;5.55;1.40;;;;;;;;;;4985124;28;20040;-43
2023/05/11 10:35:38;;;;;;;8.00;1.63;;;;;;;;;;4986814;28;20097;-42
2023/05/11 10:38:06;;;;;;;9.50;1.92;;;;;;;;;;4984564;28;20033;-43
2023/05/11 10:40:45;;;;;;;11.73;1.63;;;;;;;;;;4985102;28;20058;-43
2023/05/11 10:43:25;;;;;;;8.00;1.45;;;;;;;;;;4988279;28;20030;-42
2023/05/11 10:46:08;;;;;;;7.75;1.60;;;;;;;;;;4985323;28;20388;-42
2023/05/11 10:48:53;;;;;;;17.05;2.22;;;;;;;;;;4982199;28;20117;-42
2023/05/11 10:51:26;;;;;;;10.10;1.92;;;;;;;;;;4985260;28;20041;-42
2023/05/11 10:53:59;;;;;;;10.02;1.70;;;;;;;;;;4984200;28;20105;-44
2023/05/11 10:56:38;;;;;;;6.97;1.77;;;;;;;;;;4984853;28;20480;-42
2023/05/11 10:59:11;;;;;;;7.63;1.63;;;;;;;;;;4983370;28;20370;-41
2023/05/11 11:01:42;;;;;;;4.47;1.48;;;;;;;;;;4984495;28;20039;-42
2023/05/11 11:04:10;;;;;;;4.97;1.30;;;;;;;;;;4984983;28;20054;-41
2023/05/11 11:06:38;;;;;;;10.10;2.33;;;;;;;;;;4984077;28;20109;-41
2023/05/11 11:09:06;;;;;;;11.15;2.00;;;;;;;;;;4981311;28;20026;-42
2023/05/11 11:11:38;;;;;;;5.45;1.55;;;;;;;;;;4984913;28;20460;-41
2023/05/11 11:14:05;;;;;;;5.80;1.65;;;;;;;;;;4987640;28;20049;-43
2023/05/11 11:16:33;;;;;;;7.03;1.60;;;;;;;;;;4988953;28;20141;-42
2023/05/11 11:19:19;;;;;;;13.23;1.60;;;;;;;;;;4992727;28;20114;-46
2023/05/11 11:21:47;;;;;;;9.15;1.63;;;;;;;;;;4994107;28;20081;-44
2023/05/11 11:24:32;;;;;;;5.97;1.50;;;;;;;;;;4994456;28;20121;-40
2023/05/11 11:27:00;;;;;;;8.65;1.90;;;;;;;;;;4994532;28;20044;-42
2023/05/11 11:29:27;;;;;;;4.70;1.38;;;;;;;;;;4993647;28;20041;-42
2023/05/11 11:31:54;;;;;;;9.63;2.13;;;;;;;;;;4993150;28;20416;-45
2023/05/11 11:34:27;;;;;;;4.35;1.52;;;;;;;;;;4976077;28;20366;-43
2023/05/11 11:36:57;;;;;;;4.82;1.55;;;;;;;;;;4993774;28;20034;-46
2023/05/11 11:39:45;;;;;;;6.60;1.70;;;;;;;;;;4993694;28;20026;-45
2023/05/11 11:42:13;;;;;;;7.38;1.90;;;;;;;;;;4992760;28;20550;-42
2023/05/11 11:44:41;;;;;;;6.43;1.52;;;;;;;;;;4994201;28;20034;-43
2023/05/11 11:47:11;;;;;;;8.48;1.60;;;;;;;;;;4993705;28;20408;-43
2023/05/11 11:49:39;;;;;;;5.70;1.30;;;;;;;;;;4993951;28;20038;-44
2023/05/11 11:52:10;;;;;;;8.93;1.50;;;;;;;;;;4992619;28;20038;-42
2023/05/11 11:54:38;;;;;;;7.45;1.80;;;;;;;;;;4993934;28;20035;-43
2023/05/11 11:57:25;;;;;;;7.38;1.80;;;;;;;;;;4994017;28;20038;-42
2023/05/11 11:59:52;;;;;;;6.07;1.48;;;;;;;;;;4983355;28;20061;-43
2023/05/11 12:02:20;;;;;;;66.63;2.95;;;;;;;;;;4985873;28;20117;-41
2023/05/11 12:04:51;;;;;;;5.63;1.80;;;;;;;;;;4993840;28;20096;-45
2023/05/11 12:07:20;;;;;;;5.77;1.50;;;;;;;;;;4993515;28;20551;-43
2023/05/11 12:09:47;;;;;;;6.93;1.63;;;;;;;;;;4993337;28;20029;-43
2023/05/11 12:12:17;;;;;;;7.57;1.58;;;;;;;;;;4992677;28;20060;-43
2023/05/11 12:14:47;;;;;;;6.20;1.50;;;;;;;;;;4993262;28;20046;-45
2023/05/11 12:17:16;;;;;;;8.05;1.80;;;;;;;;;;4993554;28;20049;-44
2023/05/11 12:19:43;;;;;;;7.93;1.42;;;;;;;;;;4974984;28;20038;-45
2023/05/11 12:22:13;;;;;;;8.52;1.70;;;;;;;;;;4973528;28;20389;-46
2023/05/11 12:24:40;;;;;;;5.00;1.48;;;;;;;;;;4974112;28;20043;-42
2023/05/11 12:27:07;;;;;;;6.57;1.70;;;;;;;;;;4974202;28;20019;-44
2023/05/11 12:29:34;;;;;;;4.88;1.60;;;;;;;;;;4974423;28;20082;-42
2023/05/11 12:32:01;;;;;;;4.57;1.40;;;;;;;;;;4973767;28;20452;-42
2023/05/11 12:34:28;;;;;;;6.28;1.50;;;;;;;;;;4973909;28;20042;-42
2023/05/11 12:36:55;;;;;;;8.15;1.45;;;;;;;;;;4974053;28;20090;-42
2023/05/11 12:39:26;;;;;;;7.55;1.60;;;;;;;;;;4973800;28;20481;-42
2023/05/11 12:41:54;;;;;;;6.20;1.60;;;;;;;;;;4973907;28;20026;-42
2023/05/11 12:44:22;;;;;;;6.07;1.70;;;;;;;;;;4973791;28;20045;-45
2023/05/11 12:50:06;;;;;;;8.18;1.27;;;;;;;;;;4963022;28;20531;-42
2023/05/11 12:52:33;;;;;;;4.63;1.35;;;;;;;;;;4973747;28;20033;-43
2023/05/11 12:55:00;;;;;;;6.57;1.20;;;;;;;;;;4973646;28;20537;-43
2023/05/11 12:57:30;;;;;;;6.70;1.67;;;;;;;;;;4973707;28;20054;-43
2023/05/11 13:00:10;;;;;;;4.65;1.42;;;;;;;;;;4973583;28;20085;-42
2023/05/11 13:02:56;;;;;;;7.28;1.67;;;;;;;;;;4973627;28;20022;-42
2023/05/11 13:05:25;;;;;;;7.65;1.73;;;;;;;;;;4973372;28;20488;-44
2023/05/11 13:07:58;;;;;;;5.88;1.48;;;;;;;;;;4973461;28;20018;-42
2023/05/11 13:10:26;;;;;;;4.65;1.50;;;;;;;;;;4973493;28;20019;-43
2023/05/11 13:12:53;;;;;;;7.15;1.50;;;;;;;;;;4973452;28;20065;-42
2023/05/11 13:15:21;;;;;;;7.63;1.58;;;;;;;;;;4973214;28;20058;-42
2023/05/11 13:17:55;;;;;;;4.43;1.52;;;;;;;;;;4973418;28;20045;-43
2023/05/11 13:20:28;;;;;;;8.10;1.70;;;;;;;;;;4973332;28;20018;-43
2023/05/11 13:23:04;;;;;;;4.72;1.50;;;;;;;;;;4973310;28;20023;-43
2023/05/11 13:25:31;;;;;;;8.88;1.73;;;;;;;;;;4973027;28;20035;-42
2023/05/11 13:28:00;;;;;;;6.00;1.70;;;;;;;;;;4973201;28;20030;-42
2023/05/11 13:30:27;;;;;;;5.40;1.40;;;;;;;;;;4973091;28;20033;-42
2023/05/11 13:32:54;;;;;;;5.15;1.75;;;;;;;;;;4973143;28;20027;-43
2023/05/11 13:35:21;;;;;;;5.68;1.63;;;;;;;;;;4972950;28;20045;-42
2023/05/11 13:37:48;;;;;;;8.48;1.70;;;;;;;;;;4973028;28;20445;-42
2023/05/11 13:40:15;;;;;;;5.55;1.40;;;;;;;;;;4973064;28;20523;-42
2023/05/11 13:42:42;;;;;;;5.88;1.70;;;;;;;;;;4972282;28;20037;-42
2023/05/11 13:45:10;;;;;;;6.35;1.80;;;;;;;;;;4972887;28;20069;-43
2023/05/11 13:47:37;;;;;;;5.63;1.30;;;;;;;;;;4972836;28;20027;-43
2023/05/11 13:50:05;;;;;;;7.45;1.80;;;;;;;;;;4972646;28;20143;-44
2023/05/11 13:52:32;;;;;;;6.18;1.83;;;;;;;;;;4972901;28;20022;-47
2023/05/11 13:54:59;;;;;;;8.25;1.83;;;;;;;;;;4972754;28;20445;-44
2023/05/11 13:57:26;;;;;;;6.47;1.70;;;;;;;;;;4972832;28;20444;-44
2023/05/11 13:59:52;;;;;;;4.80;1.60;;;;;;;;;;4972785;28;20054;-42
2023/05/11 14:02:19;;;;;;;6.97;1.90;;;;;;;;;;4972754;28;20026;-43
2023/05/11 14:04:46;;;;;;;8.43;1.85;;;;;;;;;;4972822;28;20059;-44
2023/05/11 14:07:14;;;;;;;5.50;1.70;;;;;;;;;;4972594;28;20188;-43
2023/05/11 14:09:50;;;;;;;6.60;1.92;;;;;;;;;;4972676;28;20022;-47
2023/05/11 14:12:17;;;;;;;7.93;1.98;;;;;;;;;;4972718;28;20085;-48
2023/05/11 14:14:44;;;;;;;9.27;1.80;;;;;;;;;;4972671;28;20093;-44
2023/05/11 14:17:12;;;;;;;9.00;1.63;;;;;;;;;;4972513;28;20029;-47
2023/05/11 14:19:39;;;;;;;4.50;1.58;;;;;;;;;;4972543;28;20027;-44
2023/05/11 14:22:06;;;;;;;5.82;1.70;;;;;;;;;;4972615;28;20481;-45
2023/05/11 14:24:33;;;;;;;6.40;1.85;;;;;;;;;;4972565;28;20512;-46
2023/05/11 14:27:01;;;;;;;6.07;1.80;;;;;;;;;;4972496;28;20022;-43
2023/05/11 14:29:28;;;;;;;6.75;1.75;;;;;;;;;;4972548;28;20102;-42
2023/05/11 14:31:55;;;;;;;8.80;1.75;;;;;;;;;;4972460;28;20023;-43
2023/05/11 14:34:22;;;;;;;5.80;1.50;;;;;;;;;;4972466;28;20045;-43
2023/05/11 14:36:49;;;;;;;5.80;1.80;;;;;;;;;;4972348;28;20031;-44
2023/05/11 14:39:16;;;;;;;4.72;1.60;;;;;;;;;;4972496;28;20023;-42
2023/05/11 14:41:43;;;;;;;6.55;1.67;;;;;;;;;;4972395;28;20027;-44
2023/05/11 14:44:10;;;;;;;3.30;1.25;;;;;;;;;;4972411;28;20517;-46
2023/05/11 14:46:37;;;;;;;4.05;1.70;;;;;;;;;;4972333;28;20053;-43
2023/05/11 14:49:04;;;;;;;7.82;1.85;;;;;;;;;;4972220;28;20054;-43
2023/05/11 14:51:31;;;;;;;6.47;1.70;;;;;;;;;;4972234;28;20114;-43